Time;durP1;ratioP1;P1;durP2;ratioP2;P2;SDS_P1;SDS_P2;PMS_P1;PMS_P2;Temp;Humidity;BMP_temperature;BMP_pressure;BME280_temperature;BME280_humidity;BME280_pressure;Samples;Min_cycle;Max_cycle;Signal;HPM_P1;HPM_P2
2022/03/09 00:00:26;;;;;;;;;;;5.20;44.30;;;3.26;48.11;102208.66;8236564;28;20432;-85
2022/03/09 00:04:50;;;;;;;;;;;5.10;44.30;;;3.13;48.05;102202.63;8237474;28;19922;-85
2022/03/09 00:09:13;;;;;;;;;;;5.00;44.20;;;3.07;47.91;102200.91;8220906;28;20008;-86
2022/03/09 00:13:35;;;;;;;;;;;4.80;44.20;;;3.05;48.17;102223.31;8260963;28;20000;-85
2022/03/09 00:17:56;;;;;;;;;;;4.80;44.20;;;2.85;47.77;102214.69;8249362;28;19921;-84
2022/03/09 00:22:18;;;;;;;;;;;4.80;44.20;;;2.61;47.97;102180.25;8232047;28;19932;-84
2022/03/09 00:26:39;;;;;;;;;;;4.60;44.20;;;2.33;48.14;102143.28;8235653;28;20009;-85
2022/03/09 00:31:04;;;;;;;;;;;4.60;44.30;;;2.67;48.15;102200.03;8264347;28;20001;-84
2022/03/09 00:35:26;;;;;;;;;;;4.50;44.30;;;2.49;47.86;102185.41;8255110;28;20012;-85
2022/03/09 00:39:47;;;;;;;;;;;4.50;44.30;;;2.69;48.44;102218.09;8248714;28;20008;-84
2022/03/09 00:44:09;;;;;;;;;;;4.50;44.40;;;2.63;48.45;102209.50;8249203;28;19928;-85
2022/03/09 00:48:31;;;;;;;;;;;4.50;44.50;;;2.56;48.40;102207.75;8262593;28;20009;-85
2022/03/09 00:52:52;;;;;;;;;;;4.40;44.50;;;2.59;48.57;102210.38;8255097;28;20060;-85
2022/03/09 00:57:14;;;;;;;;;;;4.40;44.50;;;2.64;48.40;102228.41;8262451;28;20017;-85
2022/03/09 01:01:36;;;;;;;;;;;4.40;44.60;;;2.51;48.40;102204.34;8249063;28;20009;-86
2022/03/09 01:05:57;;;;;;;;;;;4.40;44.60;;;2.39;48.72;102204.28;8262945;28;20000;-86
2022/03/09 01:10:19;;;;;;;;;;;4.30;44.50;;;2.38;48.39;102202.59;8247341;28;20001;-87
2022/03/09 01:14:40;;;;;;;;;;;4.20;44.50;;;2.41;48.46;102213.75;8237158;28;20005;-87
2022/03/09 01:19:02;;;;;;;;;;;4.20;44.50;;;2.39;48.36;102210.31;8235268;28;20008;-87
2022/03/09 01:23:24;;;;;;;;;;;4.20;44.60;;;2.35;48.40;102198.28;8245389;28;20021;-87
2022/03/09 01:27:45;;;;;;;;;;;4.00;44.50;;;2.42;48.75;102206.88;8249021;28;20016;-88
2022/03/09 01:32:07;;;;;;;;;;;4.20;44.70;;;2.46;48.79;102207.72;8263212;28;20001;-87
2022/03/09 01:36:28;;;;;;;;;;;4.20;44.70;;;2.32;48.62;102177.66;8263293;28;20140;-86
2022/03/09 01:40:50;;;;;;;;;;;4.20;44.70;;;2.23;48.75;102164.72;8247735;28;20004;-87
2022/03/09 01:45:13;;;;;;;;;;;4.10;44.60;;;2.29;48.68;102184.50;8242149;28;19922;-86
2022/03/09 01:49:36;;;;;;;;;;;4.20;44.70;;;2.38;48.39;102190.56;8247598;28;20363;-86
2022/03/09 01:53:58;;;;;;;;;;;4.10;44.70;;;2.34;48.52;102190.53;8231530;28;20421;-85
2022/03/09 01:58:19;;;;;;;;;;;4.20;44.70;;;2.29;48.45;102181.91;8249279;28;20009;-85
2022/03/09 02:02:41;;;;;;;;;;;4.20;44.70;;;2.32;48.38;102197.38;8247904;28;19928;-85
2022/03/09 02:07:06;;;;;;;;;;;4.00;44.60;;;2.30;48.65;102189.66;8247816;28;20347;-84
2022/03/09 02:11:28;;;;;;;;;;;4.10;44.60;;;1.82;48.79;102108.78;8235980;28;20466;-85
2022/03/09 02:15:49;;;;;;;;;;;4.10;44.70;;;2.26;48.70;102187.06;8243568;28;19922;-84
2022/03/09 02:20:11;;;;;;;;;;;4.40;44.80;;;2.17;48.61;102178.47;8252766;28;20020;-84
2022/03/09 02:24:33;;;;;;;;;;;4.10;44.70;;;2.25;48.85;102190.50;8230150;28;19921;-84
2022/03/09 02:28:54;;;;;;;;;;;4.10;44.60;;;2.08;48.71;102164.66;8253730;28;20454;-84
2022/03/09 02:33:16;;;;;;;;;;;4.10;44.70;;;2.07;48.47;102165.53;8248547;28;20494;-83
2022/03/09 02:37:38;;;;;;;;;;;4.10;44.60;;;2.10;48.81;102191.31;8267945;28;19981;-83
2022/03/09 02:42:00;;;;;;;;;;;4.00;44.50;;;2.06;49.11;102190.44;8268055;28;20369;-83
2022/03/09 02:46:21;;;;;;;;;;;4.00;44.50;;;1.86;48.77;102167.16;8263253;28;20454;-82
2022/03/09 02:50:43;;;;;;;;;;;4.00;44.50;;;1.82;48.88;102147.44;8252774;28;20438;-82
2022/03/09 02:55:06;;;;;;;;;;;3.90;44.60;;;1.90;48.91;102168.91;8233119;28;20013;-82
2022/03/09 02:59:27;;;;;;;;;;;3.90;44.60;;;2.00;48.89;102177.56;8251514;28;19924;-82
2022/03/09 03:03:49;;;;;;;;;;;3.90;44.70;;;1.91;48.82;102180.94;8252628;28;19932;-82
2022/03/09 03:08:10;;;;;;;;;;;3.90;44.70;;;1.95;48.94;102187.84;8260433;28;20004;-82
2022/03/09 03:12:32;;;;;;;;;;;3.80;44.70;;;1.92;49.11;102189.53;8259230;28;19992;-82
2022/03/09 03:16:54;;;;;;;;;;;3.80;44.70;;;1.87;48.72;102180.94;8253457;28;20020;-82
2022/03/09 03:21:15;;;;;;;;;;;4.00;44.80;;;1.70;48.99;102161.13;8266329;28;20020;-81
2022/03/09 03:25:37;;;;;;;;;;;3.70;44.60;;;1.67;48.80;102161.06;8265515;28;20329;-81
2022/03/09 03:29:58;;;;;;;;;;;3.80;44.70;;;1.80;48.63;102180.03;8265844;28;20358;-82
2022/03/09 03:34:20;;;;;;;;;;;3.80;44.70;;;1.84;48.68;102179.19;8266298;28;20354;-81
2022/03/09 03:38:42;;;;;;;;;;;3.80;44.70;;;1.71;49.14;102156.81;8266830;28;20362;-82
2022/03/09 03:43:04;;;;;;;;;;;3.70;44.70;;;1.76;49.00;102170.59;8265248;28;19922;-82
2022/03/09 03:47:26;;;;;;;;;;;3.70;44.70;;;1.84;48.89;102199.81;8257098;28;20000;-82
2022/03/09 03:51:47;;;;;;;;;;;3.70;44.60;;;1.80;49.06;102192.91;8265039;28;20008;-81
2022/03/09 03:56:09;;;;;;;;;;;3.70;44.70;;;1.75;49.18;102189.44;8258530;28;20005;-82
2022/03/09 04:00:30;;;;;;;;;;;3.70;44.60;;;1.71;49.26;102192.88;8264991;28;19996;-81
2022/03/09 04:04:52;;;;;;;;;;;3.60;44.60;;;1.47;48.88;102158.41;8263297;28;19921;-81
2022/03/09 04:09:13;;;;;;;;;;;3.70;44.60;;;1.56;48.85;102183.34;8265709;28;20023;-85
2022/03/09 04:13:35;;;;;;;;;;;3.60;44.60;;;1.43;49.02;102166.97;8248270;28;20008;-82
2022/03/09 04:17:57;;;;;;;;;;;3.60;44.70;;;1.50;49.12;102179.00;8239936;28;20012;-83
2022/03/09 04:22:18;;;;;;;;;;;3.60;44.70;;;1.57;48.57;102203.09;8250643;28;19918;-84
2022/03/09 04:26:40;;;;;;;;;;;3.60;44.70;;;1.39;48.80;102177.25;8250318;28;20014;-83
2022/03/09 04:31:02;;;;;;;;;;;3.60;44.70;;;1.46;49.06;102194.41;8250276;28;20000;-84
2022/03/09 04:35:23;;;;;;;;;;;3.50;45.00;;;1.46;48.75;102192.72;8236614;28;20028;-83
2022/03/09 04:39:45;;;;;;;;;;;3.50;44.70;;;1.44;48.91;102194.44;8263623;28;19928;-83
2022/03/09 04:44:07;;;;;;;;;;;3.50;44.70;;;1.53;49.23;102215.06;8250721;28;20083;-83
2022/03/09 04:48:28;;;;;;;;;;;3.50;44.70;;;1.36;49.00;102190.94;8242935;28;20001;-83
2022/03/09 04:52:50;;;;;;;;;;;3.40;44.60;;;1.42;49.12;102200.41;8257569;28;19922;-83
2022/03/09 04:57:11;;;;;;;;;;;3.40;44.70;;;1.42;49.25;102206.41;8245813;28;19921;-83
2022/03/09 05:01:33;;;;;;;;;;;3.30;44.70;;;1.33;48.98;102196.06;8228988;28;19922;-83
2022/03/09 05:05:55;;;;;;;;;;;3.40;44.70;;;1.42;49.16;102221.88;8257773;28;19928;-84
2022/03/09 05:10:17;;;;;;;;;;;3.60;44.80;;;1.38;48.96;102221.81;8247786;28;20430;-84
2022/03/09 05:14:39;;;;;;;;;;;3.40;44.70;;;1.24;49.22;102207.19;8231693;28;19936;-81
2022/03/09 05:19:01;;;;;;;;;;;3.30;44.60;;;1.14;49.20;102199.38;8248629;28;20023;-83
2022/03/09 05:23:22;;;;;;;;;;;3.30;44.60;;;1.06;49.09;102196.75;8248521;28;19932;-83
2022/03/09 05:27:44;;;;;;;;;;;3.20;44.60;;;1.00;49.20;102186.38;8259685;28;20016;-83
2022/03/09 05:32:06;;;;;;;;;;;3.20;44.60;;;1.17;49.17;102219.97;8255935;28;19921;-83
2022/03/09 05:36:28;;;;;;;;;;;3.20;44.60;;;1.05;49.29;102213.00;8242883;28;19925;-83
2022/03/09 05:40:49;;;;;;;;;;;3.20;44.60;;;1.08;49.27;102237.06;8245357;28;20028;-82
2022/03/09 05:45:12;;;;;;;;;;;3.10;44.60;;;1.04;49.42;102240.44;8246247;28;19922;-83
2022/03/09 05:49:33;;;;;;;;;;;3.00;44.60;;;0.78;49.02;102211.06;8247739;28;19963;-83
2022/03/09 05:53:55;;;;;;;;;;;3.00;44.60;;;0.83;49.05;102229.97;8266350;28;20006;-84
2022/03/09 05:58:16;;;;;;;;;;;2.90;44.60;;;0.77;48.99;102235.06;8234976;28;20973;-83
2022/03/09 06:02:38;;;;;;;;;;;2.90;44.60;;;0.78;49.26;102244.47;8253895;28;20447;-83
2022/03/09 06:07:02;;;;;;;;;;;2.80;44.50;;;0.84;49.23;102276.28;8264573;28;20470;-83
2022/03/09 06:11:24;;;;;;;;;;;2.90;44.70;;;0.65;49.11;102235.81;8252501;28;20008;-83
2022/03/09 06:15:45;;;;;;;;;;;2.80;44.70;;;0.87;49.33;102278.00;8251725;28;20012;-83
2022/03/09 06:20:07;;;;;;;;;;;2.80;44.70;;;0.80;49.62;102265.94;8239553;28;19917;-83
2022/03/09 06:24:29;;;;;;;;;;;2.80;44.80;;;0.73;49.47;102259.00;8278388;28;19922;-83
2022/03/09 06:28:50;;;;;;;;;;;2.80;44.80;;;0.39;49.33;102195.25;8252385;28;19921;-83
2022/03/09 06:33:12;;;;;;;;;;;2.90;44.80;;;0.84;49.39;102267.69;8258700;28;20009;-83
2022/03/09 06:37:34;;;;;;;;;;;2.90;44.80;;;0.94;49.19;102278.91;8240987;28;20016;-84
2022/03/09 06:41:55;;;;;;;;;;;2.90;44.80;;;0.98;49.54;102288.41;8258554;28;20470;-83
2022/03/09 06:46:17;;;;;;;;;;;3.00;45.00;;;0.94;49.38;102281.50;8260856;28;19936;-83
2022/03/09 06:50:38;;;;;;;;;;;2.90;45.00;;;0.95;49.44;102275.53;8260415;28;20004;-83
2022/03/09 06:55:03;;;;;;;;;;;3.20;45.10;;;1.05;49.35;102295.31;8262730;28;20360;-83
2022/03/09 06:59:25;;;;;;;;;;;3.10;45.10;;;1.09;49.50;102295.38;8254728;28;20077;-83
2022/03/09 07:03:46;;;;;;;;;;;3.10;45.10;;;1.12;49.81;102296.25;8251887;28;19922;-83
2022/03/09 07:08:08;;;;;;;;;;;3.40;45.20;;;1.18;49.11;102292.00;8278183;28;20012;-84
2022/03/09 07:12:29;;;;;;;;;;;3.20;45.20;;;1.08;49.81;102267.03;8272052;28;20009;-83
2022/03/09 07:16:51;;;;;;;;;;;3.20;45.30;;;0.96;49.77;102230.94;8271560;28;20020;-82
2022/03/09 07:21:13;;;;;;;;;;;3.40;45.50;;;1.36;50.16;102286.16;8264181;28;19918;-83
2022/03/09 07:25:34;;;;;;;;;;;3.50;45.70;;;1.49;50.03;102284.56;8274644;28;19922;-83
2022/03/09 07:29:56;;;;;;;;;;;3.70;45.90;;;1.70;50.17;102300.16;8269816;28;19932;-83
2022/03/09 07:34:18;;;;;;;;;;;3.70;45.90;;;1.75;50.23;102303.59;8265705;28;20017;-83
2022/03/09 07:38:40;;;;;;;;;;;3.90;45.90;;;1.77;50.16;102288.19;8274342;28;19986;-83
2022/03/09 07:43:03;;;;;;;;;;;3.90;45.90;;;1.79;50.15;102283.03;8271777;28;20401;-82
2022/03/09 07:47:26;;;;;;;;;;;4.00;46.00;;;1.88;50.14;102283.09;8266767;28;20021;-82
2022/03/09 07:51:49;;;;;;;;;;;4.10;46.00;;;2.04;50.09;102300.34;8264398;28;20005;-82
2022/03/09 07:56:11;;;;;;;;;;;4.20;45.90;;;2.17;50.16;102306.44;8256181;28;20360;-83
2022/03/09 08:00:33;;;;;;;;;;;4.30;46.00;;;2.13;50.21;102276.34;8249059;28;20004;-83
2022/03/09 08:04:56;;;;;;;;;;;4.20;46.10;;;2.46;50.59;102283.38;8260915;28;19925;-82
2022/03/09 08:09:18;;;;;;;;;;;4.50;46.60;;;2.68;50.41;102286.88;8245729;28;20016;-83
2022/03/09 08:13:39;;;;;;;;;;;4.60;46.90;;;2.87;50.83;102275.75;8259524;28;20352;-83
2022/03/09 08:18:01;;;;;;;;;;;5.10;47.10;;;3.46;50.93;102311.94;8249266;28;20012;-83
2022/03/09 08:22:22;;;;;;;;;;;5.40;47.30;;;3.73;50.89;102288.66;8262176;28;19922;-83
2022/03/09 08:26:45;;;;;;;;;;;5.60;47.20;;;4.17;50.87;102304.94;8235344;28;19928;-84
2022/03/09 08:31:06;;;;;;;;;;;6.10;47.50;;;4.48;51.30;102295.31;8261155;28;19924;-84
2022/03/09 08:35:28;;;;;;;;;;;6.50;47.50;;;4.81;51.69;102291.72;8246257;28;20000;-83
2022/03/09 08:39:50;;;;;;;;;;;6.90;47.50;;;5.11;51.76;102282.03;8245259;28;19917;-82
2022/03/09 08:44:11;;;;;;;;;;;7.20;47.40;;;5.49;51.07;102286.03;8256543;28;19940;-82
2022/03/09 08:48:33;;;;;;;;;;;7.60;47.20;;;5.96;51.48;102308.91;8267961;28;20012;-82
2022/03/09 08:52:54;;;;;;;;;;;8.00;47.00;;;6.20;51.50;102292.22;8262982;28;20004;-82
2022/03/09 08:57:16;;;;;;;;;;;8.30;47.00;;;6.63;50.90;102316.78;8268804;28;20004;-82
2022/03/09 09:01:38;;;;;;;;;;;8.70;47.00;;;6.95;50.74;102308.56;8267397;28;20004;-82
2022/03/09 09:06:00;;;;;;;;;;;9.00;46.80;;;7.29;51.17;102314.09;8248936;28;19922;-81
2022/03/09 09:10:22;;;;;;;;;;;9.30;46.70;;;7.18;50.80;102242.41;8256540;28;19921;-81
2022/03/09 09:14:43;;;;;;;;;;;9.70;46.70;;;7.89;50.97;102294.88;8268184;28;20008;-80
2022/03/09 09:19:05;;;;;;;;;;;10.00;46.80;;;8.05;51.10;102282.44;8268244;28;19924;-80
2022/03/09 09:23:26;;;;;;;;;;;10.30;46.60;;;8.39;50.93;102292.19;8268450;28;19921;-80
2022/03/09 09:27:52;;;;;;;;;;;10.60;46.40;;;8.58;50.97;102279.63;8262517;28;20008;-80
2022/03/09 09:32:15;;;;;;;;;;;10.70;46.30;;;8.93;50.92;102304.03;8266472;28;19990;-80
2022/03/09 09:36:39;;;;;;;;;;;11.10;46.20;;;9.14;50.85;102295.72;8264732;28;20012;-80
2022/03/09 09:41:01;;;;;;;;;;;11.10;45.90;;;9.25;50.62;102280.66;8265577;28;20004;-80
2022/03/09 09:45:22;;;;;;;;;;;11.60;46.00;;;9.42;50.90;102274.16;8260890;28;19952;-80
2022/03/09 09:49:44;;;;;;;;;;;11.70;45.80;;;9.65;50.23;102279.66;8266428;28;20440;-80
2022/03/09 09:54:06;;;;;;;;;;;11.90;45.60;;;9.89;50.04;102280.75;8261792;28;20359;-80
2022/03/09 09:58:28;;;;;;;;;;;12.10;45.50;;;10.16;50.05;102300.00;8265603;28;20012;-81
2022/03/09 10:02:50;;;;;;;;;;;12.30;45.50;;;10.08;50.43;102261.97;8266042;28;20510;-81
2022/03/09 10:07:12;;;;;;;;;;;12.50;45.30;;;10.39;50.28;102285.47;8266971;28;19926;-81
2022/03/09 10:11:50;;;;;;;;;;;12.60;44.70;;;10.54;49.86;102271.13;8267469;28;20005;-81
2022/03/09 10:16:13;;;;;;;;;;;12.80;44.40;;;10.76;49.69;102279.16;8254597;28;20028;-80
2022/03/09 10:20:35;;;;;;;;;;;12.90;45.00;;;10.76;49.85;102261.69;8270920;28;20008;-81
2022/03/09 10:24:59;;;;;;;;;;;13.10;44.90;;;11.04;49.90;102273.88;8260688;28;20462;-81
2022/03/09 10:29:20;;;;;;;;;;;13.20;45.00;;;11.22;49.95;102262.84;8261934;28;20349;-81
2022/03/09 10:33:42;;;;;;;;;;;13.40;44.80;;;11.52;49.94;102284.50;8264897;28;20379;-80
2022/03/09 10:38:03;;;;;;;;;;;13.50;44.40;;;11.66;49.51;102288.41;8269262;28;20358;-80
2022/03/09 10:42:25;;;;;;;;;;;13.70;43.70;;;11.80;49.79;102286.16;8271970;28;20005;-80
2022/03/09 10:46:50;;;;;;;;;;;13.80;44.10;;;11.93;49.66;102282.22;8272593;28;19922;-80
2022/03/09 10:51:23;;;;;;;;;;;14.00;42.40;;;11.91;49.68;102254.41;8256940;28;19924;-80
2022/03/09 10:55:44;;;;;;;;;;;14.10;42.60;;;12.12;49.01;102276.31;8252958;28;20449;-80
2022/03/09 11:00:07;;;;;;;;;;;14.20;43.80;;;12.26;48.35;102281.91;8277140;28;20436;-81
2022/03/09 11:04:28;;;;;;;;;;;14.30;44.00;;;12.34;48.30;102282.50;8265358;28;20411;-80
2022/03/09 11:08:50;;;;;;;;;;;14.40;43.70;;;12.42;48.59;102271.69;8277157;28;20354;-81
2022/03/09 11:13:12;;;;;;;;;;;14.40;43.30;;;12.58;48.57;102262.34;8250738;28;20387;-81
2022/03/09 11:17:34;;;;;;;;;;;14.60;43.60;;;12.62;48.73;102239.50;8272918;28;20311;-81
2022/03/09 11:21:55;;;;;;;;;;;14.70;43.60;;;12.80;48.43;102244.00;8269199;28;19918;-81
2022/03/09 11:26:25;;;;;;;;;;;14.80;42.90;;;12.79;48.31;102238.81;8266949;28;19936;-81
2022/03/09 11:30:55;;;;;;;;;;;14.90;43.30;;;12.92;48.06;102236.56;8255077;28;19924;-81
2022/03/09 11:35:31;;;;;;;;;;;15.00;43.50;;;12.97;48.07;102243.31;8276154;28;19928;-80
2022/03/09 11:40:11;;;;;;;;;;;15.10;42.20;;;13.18;47.71;102253.84;8264560;28;19925;-80
2022/03/09 11:44:34;;;;;;;;;;;15.10;43.00;;;13.25;47.96;102255.28;8273507;28;19925;-80
2022/03/09 11:48:57;;;;;;;;;;;15.00;42.10;;;13.21;47.83;102240.59;8270303;28;20457;-81
2022/03/09 11:53:46;;;;;;;;;;;15.20;43.00;;;13.32;47.86;102235.78;8265969;28;20000;-80
2022/03/09 11:58:12;;;;;;;;;;;15.30;42.20;;;13.26;47.81;102218.53;8259276;28;20000;-81
2022/03/09 12:02:41;;;;;;;;;;;15.30;42.60;;;13.50;47.76;102242.00;8266112;28;20008;-81
2022/03/09 12:07:03;;;;;;;;;;;15.40;42.50;;;13.43;47.79;102216.97;8270008;28;20302;-81
2022/03/09 12:11:24;;;;;;;;;;;15.50;39.80;;;13.53;47.53;102225.28;8269519;28;20308;-81
2022/03/09 12:16:12;;;;;;;;;;;15.50;41.50;;;13.70;47.90;102247.25;8253236;28;20290;-81
2022/03/09 12:20:43;;;;;;;;;;;15.60;40.90;;;13.72;47.38;102236.69;8264649;28;19989;-81
2022/03/09 12:25:42;;;;;;;;;;;15.60;42.50;;;13.79;47.55;102245.13;8269172;28;20409;-81
2022/03/09 12:30:04;;;;;;;;;;;15.60;42.50;;;13.73;47.40;102226.09;8263809;28;20008;-81
2022/03/09 12:34:28;;;;;;;;;;;15.70;41.80;;;13.81;47.49;102236.28;8268183;28;20470;-81
2022/03/09 12:38:57;;;;;;;;;;;15.60;40.60;;;13.81;47.55;102227.56;8268179;28;20455;-80
2022/03/09 12:43:19;;;;;;;;;;;15.70;41.50;;;13.70;46.78;102210.50;8263362;28;20458;-81
2022/03/09 12:47:43;;;;;;;;;;;15.70;42.00;;;13.80;46.90;102217.94;8236643;28;20356;-81
2022/03/09 12:52:10;;;;;;;;;;;15.70;40.20;;;13.84;47.03;102211.66;8260425;28;19996;-80
2022/03/09 12:56:32;;;;;;;;;;;15.70;41.80;;;13.84;46.90;102216.91;8247846;28;20012;-81
2022/03/09 13:01:02;;;;;;;;;;;15.70;42.30;;;13.84;46.64;102211.66;8260914;28;20024;-81
2022/03/09 13:05:26;;;;;;;;;;;15.70;41.70;;;13.76;46.62;102195.38;8245223;28;19926;-81
2022/03/09 13:09:47;;;;;;;;;;;15.70;42.10;;;13.65;46.10;102183.59;8268627;28;20012;-80
2022/03/09 13:14:17;;;;;;;;;;;15.70;40.70;;;13.57;46.18;102172.59;8240190;28;20008;-81
2022/03/09 13:18:39;;;;;;;;;;;15.70;39.90;;;13.64;46.11;102174.03;8251680;28;20012;-80
2022/03/09 13:23:00;;;;;;;;;;;15.60;40.60;;;13.84;46.21;102203.78;8268441;28;20147;-80
2022/03/09 13:27:22;;;;;;;;;;;15.70;41.20;;;13.78;46.02;102198.81;8267704;28;19922;-81
2022/03/09 13:31:49;;;;;;;;;;;15.60;42.10;;;13.78;45.79;102201.44;8267046;28;20169;-80
2022/03/09 13:36:13;;;;;;;;;;;15.60;41.00;;;13.65;45.92;102178.34;8256591;28;20017;-80
2022/03/09 13:40:44;;;;;;;;;;;15.40;41.20;;;13.58;45.84;102169.03;8265977;28;20000;-81
2022/03/09 13:45:12;;;;;;;;;;;15.40;40.50;;;13.78;45.87;102206.69;8266602;28;20286;-80
2022/03/09 13:49:49;;;;;;;;;;;15.50;39.50;;;13.66;46.23;102182.69;8266964;28;20009;-80
2022/03/09 13:54:10;;;;;;;;;;;15.50;40.60;;;13.66;46.11;102177.44;8267702;28;20404;-80
2022/03/09 13:58:40;;;;;;;;;;;15.50;40.50;;;13.68;46.05;102180.81;8258998;28;20397;-81
2022/03/09 14:03:21;;;;;;;;;;;15.50;41.10;;;13.70;45.84;102191.28;8269732;28;20438;-81
2022/03/09 14:07:45;;;;;;;;;;;15.50;41.40;;;13.71;45.84;102187.72;8262389;28;20009;-80
2022/03/09 14:12:14;;;;;;;;;;;15.50;40.20;;;13.79;45.74;102197.88;8261429;28;20004;-80
2022/03/09 14:16:41;;;;;;;;;;;15.50;41.10;;;13.76;46.08;102188.38;8268760;28;19924;-81
2022/03/09 14:21:02;;;;;;;;;;;15.50;41.30;;;13.60;45.76;102164.56;8268879;28;20020;-81
2022/03/09 14:25:24;;;;;;;;;;;15.50;40.30;;;13.66;45.67;102174.81;8268556;28;19932;-80
2022/03/09 14:29:46;;;;;;;;;;;15.50;40.80;;;13.76;45.62;102193.63;8268569;28;20000;-81
2022/03/09 14:34:08;;;;;;;;;;;15.40;40.90;;;13.59;45.58;102165.50;8268779;28;20461;-81
2022/03/09 14:38:30;;;;;;;;;;;15.50;41.70;;;13.38;45.38;102142.84;8268469;28;19928;-81
2022/03/09 14:42:53;;;;;;;;;;;15.40;41.60;;;13.62;45.30;102181.09;8266587;28;20017;-80
2022/03/09 14:47:15;;;;;;;;;;;15.40;39.70;;;13.67;45.21;102194.03;8267899;28;19948;-79
2022/03/09 14:51:37;;;;;;;;;;;15.20;41.40;;;13.62;45.07;102182.88;8248775;28;19918;-79
2022/03/09 14:55:58;;;;;;;;;;;15.00;40.70;;;13.61;45.46;102189.91;8262892;28;19918;-81
2022/03/09 15:00:20;;;;;;;;;;;15.40;40.80;;;13.71;45.16;102196.44;8257862;28;19932;-79
2022/03/09 15:04:42;;;;;;;;;;;15.40;41.10;;;13.60;44.97;102177.69;8225317;28;19926;-79
2022/03/09 15:09:04;;;;;;;;;;;15.10;41.20;;;13.70;45.10;102186.03;8257817;28;19922;-79
2022/03/09 15:13:25;;;;;;;;;;;15.10;40.50;;;13.64;45.25;102175.81;8237808;28;20288;-78
2022/03/09 15:17:47;;;;;;;;;;;15.40;40.80;;;13.50;45.26;102156.28;8255130;28;20584;-79
2022/03/09 15:22:08;;;;;;;;;;;15.30;40.80;;;13.57;45.38;102167.34;8225462;28;20391;-79
2022/03/09 15:26:30;;;;;;;;;;;15.40;41.10;;;13.70;45.19;102193.91;8243022;28;20548;-79
2022/03/09 15:30:52;;;;;;;;;;;15.60;40.70;;;13.62;45.29;102170.59;8253181;28;20564;-81
2022/03/09 15:35:13;;;;;;;;;;;15.30;41.10;;;13.66;44.79;102185.31;8259326;28;19922;-81
2022/03/09 15:39:38;;;;;;;;;;;15.20;40.60;;;13.63;44.79;102182.81;8252467;28;19936;-80
2022/03/09 15:43:59;;;;;;;;;;;15.30;40.90;;;13.22;44.98;102124.25;8252247;28;19933;-86
2022/03/09 15:48:24;;;;;;;;;;;15.30;41.10;;;13.53;45.25;102170.16;8228771;28;20032;-80
2022/03/09 15:52:46;;;;;;;;;;;15.30;40.60;;;13.43;44.96;102165.31;8247279;28;19943;-79
2022/03/09 15:57:07;;;;;;;;;;;15.20;40.40;;;13.59;45.02;102198.78;8254412;28;19928;-79
2022/03/09 16:01:29;;;;;;;;;;;15.10;41.10;;;13.57;45.21;102198.81;8257452;28;19921;-79
2022/03/09 16:05:51;;;;;;;;;;;15.20;41.10;;;13.54;45.00;102198.97;8255076;28;19925;-79
2022/03/09 16:10:15;;;;;;;;;;;15.20;40.00;;;13.42;44.87;102189.88;8229565;28;20391;-78
2022/03/09 16:14:36;;;;;;;;;;;15.10;40.30;;;13.38;45.10;102183.03;8239971;28;19921;-85
2022/03/09 16:18:58;;;;;;;;;;;15.20;40.80;;;13.33;44.69;102195.50;8221886;28;20386;-79
2022/03/09 16:23:19;;;;;;;;;;;15.00;38.90;;;13.20;44.85;102200.38;8238824;28;19921;-82
2022/03/09 16:27:44;;;;;;;;;;;14.90;40.10;;;13.12;44.93;102191.97;8247730;28;19932;-82
2022/03/09 16:32:06;;;;;;;;;;;14.80;39.80;;;12.99;44.91;102190.81;8247612;28;19933;-81
2022/03/09 16:36:27;;;;;;;;;;;14.70;40.50;;;12.98;44.85;102216.16;8233840;28;19921;-80
2022/03/09 16:40:49;;;;;;;;;;;14.70;40.90;;;12.87;44.83;102214.91;8241334;28;19925;-81
2022/03/09 16:45:14;;;;;;;;;;;14.50;40.40;;;12.82;44.82;102215.94;8234491;28;19926;-80
2022/03/09 16:49:35;;;;;;;;;;;14.40;41.00;;;12.70;44.82;102216.44;8246206;28;19926;-80
2022/03/09 16:53:57;;;;;;;;;;;14.40;41.30;;;12.60;44.98;102221.19;8254520;28;19922;-80
2022/03/09 16:58:18;;;;;;;;;;;14.20;41.10;;;12.58;44.94;102227.41;8239464;28;19944;-80
2022/03/09 17:02:40;;;;;;;;;;;14.10;41.20;;;12.51;44.87;102232.06;8241793;28;19921;-80
2022/03/09 17:07:02;;;;;;;;;;;14.10;41.30;;;12.39;44.95;102233.38;8249246;28;19979;-81
2022/03/09 17:11:23;;;;;;;;;;;14.00;41.40;;;12.25;44.79;102240.91;8255932;28;19928;-81
2022/03/09 17:15:46;;;;;;;;;;;13.90;41.40;;;12.17;44.61;102253.44;8231874;28;19922;-80
2022/03/09 17:20:10;;;;;;;;;;;13.80;41.40;;;12.03;44.83;102255.72;8236620;28;22196;-81
2022/03/09 17:24:32;;;;;;;;;;;13.60;41.40;;;11.85;44.67;102251.97;8224875;28;19926;-81
2022/03/09 17:28:53;;;;;;;;;;;13.40;41.40;;;11.67;44.58;102256.94;8243172;28;19964;-81
2022/03/09 17:33:15;;;;;;;;;;;13.30;41.40;;;11.45;44.34;102256.84;8253111;28;19928;-80
2022/03/09 17:37:38;;;;;;;;;;;13.10;41.50;;;11.42;44.38;102285.72;8239224;28;19932;-80
2022/03/09 17:41:59;;;;;;;;;;;13.00;41.40;;;11.26;44.45;102284.50;8245442;28;19932;-80
2022/03/09 17:46:21;;;;;;;;;;;12.80;41.40;;;11.15;44.78;102277.03;8237695;28;19940;-80
2022/03/09 17:50:42;;;;;;;;;;;12.70;41.50;;;11.07;44.62;102297.31;8237908;28;19922;-80
2022/03/09 17:55:05;;;;;;;;;;;12.60;41.50;;;10.90;44.56;102297.84;8243242;28;19928;-80
2022/03/09 17:59:27;;;;;;;;;;;12.50;41.60;;;10.72;44.79;102287.97;8231963;28;19936;-80
2022/03/09 18:03:49;;;;;;;;;;;12.30;41.50;;;10.59;44.87;102288.34;8234608;28;19921;-80
2022/03/09 18:08:13;;;;;;;;;;;12.20;41.50;;;10.50;44.39;102298.22;8246554;28;19926;-81
2022/03/09 18:12:34;;;;;;;;;;;12.10;41.60;;;10.40;44.87;102295.03;8251005;28;19922;-81
2022/03/09 18:16:56;;;;;;;;;;;12.00;41.60;;;10.28;44.93;102293.59;8240350;28;19925;-81
2022/03/09 18:21:18;;;;;;;;;;;11.90;41.60;;;10.28;44.93;102305.81;8233382;28;19930;-81
2022/03/09 18:25:39;;;;;;;;;;;11.80;41.60;;;10.18;44.55;102316.50;8248718;28;19929;-80
2022/03/09 18:30:01;;;;;;;;;;;11.60;41.60;;;10.00;44.92;102308.31;8245169;28;19922;-80
2022/03/09 18:34:22;;;;;;;;;;;11.60;41.60;;;9.93;44.87;102323.28;8252165;28;19925;-81
2022/03/09 18:38:46;;;;;;;;;;;11.50;41.60;;;9.83;44.66;102335.72;8254099;28;19928;-81
2022/03/09 18:43:08;;;;;;;;;;;11.30;41.50;;;9.55;44.64;102306.88;8218121;28;19948;-82
2022/03/09 18:47:30;;;;;;;;;;;11.20;41.60;;;9.56;44.89;102337.28;8239739;28;19930;-79
2022/03/09 18:51:51;;;;;;;;;;;11.10;41.60;;;9.48;44.91;102341.84;8239586;28;20522;-81
2022/03/09 18:56:14;;;;;;;;;;;10.90;41.70;;;9.33;44.81;102324.78;8234628;28;19922;-80
2022/03/09 19:00:35;;;;;;;;;;;10.90;41.80;;;9.18;44.88;102323.44;8243043;28;19922;-80
2022/03/09 19:04:57;;;;;;;;;;;10.80;41.80;;;9.07;44.69;102320.19;8231552;28;20419;-80
2022/03/09 19:09:18;;;;;;;;;;;10.70;41.80;;;9.15;44.86;102346.94;8257120;28;19955;-80
2022/03/09 19:13:40;;;;;;;;;;;10.70;41.90;;;9.03;45.16;102345.47;8253326;28;19925;-81
2022/03/09 19:18:02;;;;;;;;;;;10.60;41.90;;;8.94;44.77;102348.31;8234853;28;19922;-79
2022/03/09 19:22:23;;;;;;;;;;;10.50;41.90;;;8.94;44.88;102361.31;8237744;28;19949;-79
2022/03/09 19:26:45;;;;;;;;;;;10.40;41.90;;;8.79;45.04;102356.44;8240367;28;19926;-79
2022/03/09 19:31:07;;;;;;;;;;;10.40;41.90;;;8.76;44.80;102367.78;8249971;28;19922;-80
2022/03/09 19:35:28;;;;;;;;;;;10.20;41.90;;;8.53;44.74;102355.25;8243255;28;20302;-81
2022/03/09 19:39:50;;;;;;;;;;;10.20;42.00;;;8.11;45.07;102289.25;8256986;28;20279;-83
2022/03/09 19:44:11;;;;;;;;;;;10.00;41.90;;;8.33;45.14;102339.97;8245227;28;19944;-80
2022/03/09 19:48:33;;;;;;;;;;;9.90;42.00;;;8.20;45.11;102328.09;8258701;28;20423;-80
2022/03/09 19:52:55;;;;;;;;;;;9.90;42.00;;;8.36;44.84;102378.97;8248026;28;19921;-80
2022/03/09 19:57:17;;;;;;;;;;;9.80;42.00;;;8.19;45.19;102370.63;8259201;28;20625;-80
2022/03/09 20:01:38;;;;;;;;;;;9.80;42.10;;;8.08;45.04;102373.44;8231818;28;20275;-80
2022/03/09 20:06:00;;;;;;;;;;;9.60;42.00;;;8.02;45.05;102386.56;8266752;28;20452;-80